sensor_id;sensor_type;location;lat;lon;timestamp;temperature;humidity
336;DHT22;156;48.738;9.228;2023-04-02T00:01:22;6.90;15.40
336;DHT22;156;48.738;9.228;2023-04-02T00:04:17;7.00;16.20
336;DHT22;156;48.738;9.228;2023-04-02T00:06:55;7.00;16.90
336;DHT22;156;48.738;9.228;2023-04-02T00:09:43;7.00;17.10
336;DHT22;156;48.738;9.228;2023-04-02T00:12:14;7.00;16.60
336;DHT22;156;48.738;9.228;2023-04-02T00:14:48;7.00;18.90
336;DHT22;156;48.738;9.228;2023-04-02T00:17:16;7.10;16.70
336;DHT22;156;48.738;9.228;2023-04-02T00:19:47;7.10;16.90
336;DHT22;156;48.738;9.228;2023-04-02T00:22:17;7.10;17.20
336;DHT22;156;48.738;9.228;2023-04-02T00:24:47;7.10;15.50
336;DHT22;156;48.738;9.228;2023-04-02T00:27:16;7.10;16.50
336;DHT22;156;48.738;9.228;2023-04-02T00:29:47;7.00;18.40
336;DHT22;156;48.738;9.228;2023-04-02T00:32:22;7.00;18.20
336;DHT22;156;48.738;9.228;2023-04-02T00:34:50;7.00;20.70
336;DHT22;156;48.738;9.228;2023-04-02T00:37:19;7.00;20.70
336;DHT22;156;48.738;9.228;2023-04-02T00:39:57;7.00;20.60
336;DHT22;156;48.738;9.228;2023-04-02T00:42:27;7.00;19.90
336;DHT22;156;48.738;9.228;2023-04-02T00:44:56;6.90;20.80
336;DHT22;156;48.738;9.228;2023-04-02T00:47:25;7.00;19.90
336;DHT22;156;48.738;9.228;2023-04-02T00:49:58;7.00;17.20
336;DHT22;156;48.738;9.228;2023-04-02T00:52:28;6.90;20.50
336;DHT22;156;48.738;9.228;2023-04-02T00:55:02;7.00;22.80
336;DHT22;156;48.738;9.228;2023-04-02T00:57:30;6.90;20.90
336;DHT22;156;48.738;9.228;2023-04-02T00:59:59;6.90;21.30
336;DHT22;156;48.738;9.228;2023-04-02T01:02:29;6.90;22.70
336;DHT22;156;48.738;9.228;2023-04-02T01:04:58;7.00;20.20
336;DHT22;156;48.738;9.228;2023-04-02T01:07:46;7.00;20.70
336;DHT22;156;48.738;9.228;2023-04-02T01:10:36;7.00;18.80
336;DHT22;156;48.738;9.228;2023-04-02T01:13:15;7.00;19.60
336;DHT22;156;48.738;9.228;2023-04-02T01:15:50;7.00;17.00
336;DHT22;156;48.738;9.228;2023-04-02T01:18:33;7.10;16.60
336;DHT22;156;48.738;9.228;2023-04-02T01:21:15;7.10;14.60
336;DHT22;156;48.738;9.228;2023-04-02T01:23:52;7.10;15.90
336;DHT22;156;48.738;9.228;2023-04-02T01:26:38;7.00;16.10
336;DHT22;156;48.738;9.228;2023-04-02T01:29:09;7.10;16.30
336;DHT22;156;48.738;9.228;2023-04-02T01:31:37;7.10;15.50
336;DHT22;156;48.738;9.228;2023-04-02T01:34:08;7.10;16.20
336;DHT22;156;48.738;9.228;2023-04-02T01:36:40;7.10;15.10
336;DHT22;156;48.738;9.228;2023-04-02T01:39:19;7.00;13.40
336;DHT22;156;48.738;9.228;2023-04-02T01:41:56;7.10;12.80
336;DHT22;156;48.738;9.228;2023-04-02T01:44:31;7.10;12.80
336;DHT22;156;48.738;9.228;2023-04-02T01:47:02;7.10;12.20
336;DHT22;156;48.738;9.228;2023-04-02T01:49:30;7.10;13.60
336;DHT22;156;48.738;9.228;2023-04-02T01:51:58;7.10;13.70
336;DHT22;156;48.738;9.228;2023-04-02T01:54:25;7.00;15.80
336;DHT22;156;48.738;9.228;2023-04-02T01:56:54;7.00;12.50
336;DHT22;156;48.738;9.228;2023-04-02T01:59:22;7.10;14.10
336;DHT22;156;48.738;9.228;2023-04-02T02:01:53;7.10;15.70
336;DHT22;156;48.738;9.228;2023-04-02T02:04:22;7.10;13.70
336;DHT22;156;48.738;9.228;2023-04-02T02:06:50;7.10;12.60
336;DHT22;156;48.738;9.228;2023-04-02T02:09:19;7.20;12.60
336;DHT22;156;48.738;9.228;2023-04-02T02:11:49;7.10;12.70
336;DHT22;156;48.738;9.228;2023-04-02T02:14:18;7.00;14.90
336;DHT22;156;48.738;9.228;2023-04-02T02:16:46;7.00;16.50
336;DHT22;156;48.738;9.228;2023-04-02T02:19:22;7.10;16.60
336;DHT22;156;48.738;9.228;2023-04-02T02:21:51;7.20;12.60
336;DHT22;156;48.738;9.228;2023-04-02T02:24:21;7.20;11.00
336;DHT22;156;48.738;9.228;2023-04-02T02:26:57;7.20;9.40
336;DHT22;156;48.738;9.228;2023-04-02T02:29:27;7.30;8.50
336;DHT22;156;48.738;9.228;2023-04-02T02:31:54;7.30;7.50
336;DHT22;156;48.738;9.228;2023-04-02T02:34:30;7.40;4.80
336;DHT22;156;48.738;9.228;2023-04-02T02:37:01;7.40;3.60
336;DHT22;156;48.738;9.228;2023-04-02T02:39:33;7.40;4.50
336;DHT22;156;48.738;9.228;2023-04-02T02:42:07;7.30;8.20
336;DHT22;156;48.738;9.228;2023-04-02T02:44:39;7.30;9.60
336;DHT22;156;48.738;9.228;2023-04-02T02:47:10;7.20;12.60
336;DHT22;156;48.738;9.228;2023-04-02T02:49:42;7.20;12.80
336;DHT22;156;48.738;9.228;2023-04-02T02:52:14;7.30;16.20
336;DHT22;156;48.738;9.228;2023-04-02T02:54:44;7.30;12.70
336;DHT22;156;48.738;9.228;2023-04-02T02:57:14;7.30;13.90
336;DHT22;156;48.738;9.228;2023-04-02T02:59:44;7.40;13.50
336;DHT22;156;48.738;9.228;2023-04-02T03:02:13;7.40;12.90
336;DHT22;156;48.738;9.228;2023-04-02T03:04:46;7.50;13.10
336;DHT22;156;48.738;9.228;2023-04-02T03:07:14;7.50;8.70
336;DHT22;156;48.738;9.228;2023-04-02T03:09:48;7.60;9.00
336;DHT22;156;48.738;9.228;2023-04-02T03:12:30;7.60;9.10
336;DHT22;156;48.738;9.228;2023-04-02T03:15:02;7.70;8.50
336;DHT22;156;48.738;9.228;2023-04-02T03:17:34;7.60;8.40
336;DHT22;156;48.738;9.228;2023-04-02T03:20:11;7.70;8.80
336;DHT22;156;48.738;9.228;2023-04-02T03:22:45;7.60;8.10
336;DHT22;156;48.738;9.228;2023-04-02T03:25:21;7.70;8.40
336;DHT22;156;48.738;9.228;2023-04-02T03:27:54;7.70;8.80
336;DHT22;156;48.738;9.228;2023-04-02T03:30:28;7.70;4.50
336;DHT22;156;48.738;9.228;2023-04-02T03:32:58;7.70;5.70
336;DHT22;156;48.738;9.228;2023-04-02T03:35:32;7.50;8.80
336;DHT22;156;48.738;9.228;2023-04-02T03:38:03;7.50;12.90
336;DHT22;156;48.738;9.228;2023-04-02T03:40:34;7.50;13.20
336;DHT22;156;48.738;9.228;2023-04-02T03:43:12;7.50;14.70
336;DHT22;156;48.738;9.228;2023-04-02T03:45:44;7.40;18.90
336;DHT22;156;48.738;9.228;2023-04-02T03:48:14;7.40;19.70
336;DHT22;156;48.738;9.228;2023-04-02T03:50:47;7.40;20.90
336;DHT22;156;48.738;9.228;2023-04-02T03:53:16;7.40;20.80
336;DHT22;156;48.738;9.228;2023-04-02T03:55:43;7.40;20.90
336;DHT22;156;48.738;9.228;2023-04-02T03:58:15;7.40;20.80
336;DHT22;156;48.738;9.228;2023-04-02T04:00:47;7.40;21.80
336;DHT22;156;48.738;9.228;2023-04-02T04:03:18;7.40;21.60
336;DHT22;156;48.738;9.228;2023-04-02T04:05:49;7.40;21.30
336;DHT22;156;48.738;9.228;2023-04-02T04:08:19;7.40;20.90
336;DHT22;156;48.738;9.228;2023-04-02T04:10:50;7.50;21.10
336;DHT22;156;48.738;9.228;2023-04-02T04:13:21;7.40;21.30
336;DHT22;156;48.738;9.228;2023-04-02T04:15:53;7.30;21.00
336;DHT22;156;48.738;9.228;2023-04-02T04:18:30;7.40;23.30
336;DHT22;156;48.738;9.228;2023-04-02T04:21:09;7.40;23.40
336;DHT22;156;48.738;9.228;2023-04-02T04:23:38;7.40;20.90
336;DHT22;156;48.738;9.228;2023-04-02T04:26:15;7.50;20.80
336;DHT22;156;48.738;9.228;2023-04-02T04:28:52;7.40;20.80
336;DHT22;156;48.738;9.228;2023-04-02T04:31:26;7.40;20.70
336;DHT22;156;48.738;9.228;2023-04-02T04:33:58;7.30;23.90
336;DHT22;156;48.738;9.228;2023-04-02T04:36:36;7.30;27.90
336;DHT22;156;48.738;9.228;2023-04-02T04:39:15;7.20;28.50
336;DHT22;156;48.738;9.228;2023-04-02T04:41:44;7.20;28.70
336;DHT22;156;48.738;9.228;2023-04-02T04:44:16;7.30;28.90
336;DHT22;156;48.738;9.228;2023-04-02T04:46:51;7.30;28.80
336;DHT22;156;48.738;9.228;2023-04-02T04:49:24;7.20;25.70
336;DHT22;156;48.738;9.228;2023-04-02T04:51:56;7.20;28.60
336;DHT22;156;48.738;9.228;2023-04-02T04:54:25;7.20;29.50
336;DHT22;156;48.738;9.228;2023-04-02T04:56:55;7.20;28.80
336;DHT22;156;48.738;9.228;2023-04-02T04:59:25;7.20;29.70
336;DHT22;156;48.738;9.228;2023-04-02T05:01:57;7.10;32.60
336;DHT22;156;48.738;9.228;2023-04-02T05:04:30;7.20;30.60
336;DHT22;156;48.738;9.228;2023-04-02T05:07:04;7.20;30.90
336;DHT22;156;48.738;9.228;2023-04-02T05:09:36;7.20;33.00
336;DHT22;156;48.738;9.228;2023-04-02T05:12:09;7.20;32.60
336;DHT22;156;48.738;9.228;2023-04-02T05:14:44;7.20;31.70
336;DHT22;156;48.738;9.228;2023-04-02T05:17:17;7.30;31.90
336;DHT22;156;48.738;9.228;2023-04-02T05:19:48;7.30;29.50
336;DHT22;156;48.738;9.228;2023-04-02T05:22:24;7.30;28.80
336;DHT22;156;48.738;9.228;2023-04-02T05:25:12;7.30;31.30
336;DHT22;156;48.738;9.228;2023-04-02T05:27:45;7.20;32.10
336;DHT22;156;48.738;9.228;2023-04-02T05:30:36;7.20;33.10
336;DHT22;156;48.738;9.228;2023-04-02T05:33:13;7.20;34.00
336;DHT22;156;48.738;9.228;2023-04-02T05:35:46;7.30;33.70
336;DHT22;156;48.738;9.228;2023-04-02T05:38:31;7.40;32.40
336;DHT22;156;48.738;9.228;2023-04-02T05:41:03;7.40;27.00
336;DHT22;156;48.738;9.228;2023-04-02T05:43:32;7.40;28.70
336;DHT22;156;48.738;9.228;2023-04-02T05:46:04;7.30;28.70
336;DHT22;156;48.738;9.228;2023-04-02T05:48:37;7.40;28.80
336;DHT22;156;48.738;9.228;2023-04-02T05:51:07;7.40;27.20
336;DHT22;156;48.738;9.228;2023-04-02T05:53:39;7.40;25.60
336;DHT22;156;48.738;9.228;2023-04-02T05:56:14;7.50;25.90
336;DHT22;156;48.738;9.228;2023-04-02T05:58:46;7.60;25.30
336;DHT22;156;48.738;9.228;2023-04-02T06:01:19;7.70;24.20
336;DHT22;156;48.738;9.228;2023-04-02T06:03:52;7.80;21.20
336;DHT22;156;48.738;9.228;2023-04-02T06:06:28;7.80;21.10
336;DHT22;156;48.738;9.228;2023-04-02T06:09:06;7.80;20.90
336;DHT22;156;48.738;9.228;2023-04-02T06:11:39;7.80;20.00
336;DHT22;156;48.738;9.228;2023-04-02T06:14:09;7.90;21.00
336;DHT22;156;48.738;9.228;2023-04-02T06:16:36;7.80;17.00
336;DHT22;156;48.738;9.228;2023-04-02T06:19:04;7.70;20.20
336;DHT22;156;48.738;9.228;2023-04-02T06:21:33;7.70;21.50
336;DHT22;156;48.738;9.228;2023-04-02T06:24:04;7.70;23.40
336;DHT22;156;48.738;9.228;2023-04-02T06:26:33;7.60;25.00
336;DHT22;156;48.738;9.228;2023-04-02T06:29:05;7.50;27.90
336;DHT22;156;48.738;9.228;2023-04-02T06:31:37;7.50;32.80
336;DHT22;156;48.738;9.228;2023-04-02T06:34:05;7.50;33.10
336;DHT22;156;48.738;9.228;2023-04-02T06:36:33;7.60;33.20
336;DHT22;156;48.738;9.228;2023-04-02T06:39:06;7.40;32.60
336;DHT22;156;48.738;9.228;2023-04-02T06:41:33;7.50;34.00
336;DHT22;156;48.738;9.228;2023-04-02T06:44:03;7.60;36.10
336;DHT22;156;48.738;9.228;2023-04-02T06:46:34;7.60;31.60
336;DHT22;156;48.738;9.228;2023-04-02T06:49:09;7.70;29.00
336;DHT22;156;48.738;9.228;2023-04-02T06:51:39;7.70;31.60
336;DHT22;156;48.738;9.228;2023-04-02T06:54:12;7.80;27.40
336;DHT22;156;48.738;9.228;2023-04-02T06:56:41;7.80;25.50
336;DHT22;156;48.738;9.228;2023-04-02T06:59:09;7.90;21.20
336;DHT22;156;48.738;9.228;2023-04-02T07:01:41;8.00;19.70
336;DHT22;156;48.738;9.228;2023-04-02T07:04:09;8.10;18.40
336;DHT22;156;48.738;9.228;2023-04-02T07:06:36;8.20;17.30
336;DHT22;156;48.738;9.228;2023-04-02T07:09:03;8.30;13.00
336;DHT22;156;48.738;9.228;2023-04-02T07:11:32;8.40;9.20
336;DHT22;156;48.738;9.228;2023-04-02T07:13:59;8.50;7.50
336;DHT22;156;48.738;9.228;2023-04-02T07:16:28;8.60;3.60
336;DHT22;156;48.738;9.228;2023-04-02T07:18:55;8.70;1.00
336;DHT22;156;48.738;9.228;2023-04-02T07:21:23;8.80;1.00
336;DHT22;156;48.738;9.228;2023-04-02T07:23:50;8.70;1.00
336;DHT22;156;48.738;9.228;2023-04-02T07:26:21;8.70;1.00
336;DHT22;156;48.738;9.228;2023-04-02T07:28:49;8.70;1.00
336;DHT22;156;48.738;9.228;2023-04-02T07:31:17;8.70;1.00
336;DHT22;156;48.738;9.228;2023-04-02T07:33:45;8.80;1.00
336;DHT22;156;48.738;9.228;2023-04-02T07:36:13;8.80;1.00
336;DHT22;156;48.738;9.228;2023-04-02T07:38:40;8.70;1.00
336;DHT22;156;48.738;9.228;2023-04-02T07:41:07;8.60;1.00
336;DHT22;156;48.738;9.228;2023-04-02T07:43:34;8.60;1.00
336;DHT22;156;48.738;9.228;2023-04-02T07:46:03;8.60;1.00
336;DHT22;156;48.738;9.228;2023-04-02T07:48:31;8.60;1.00
336;DHT22;156;48.738;9.228;2023-04-02T07:50:58;8.70;1.00
336;DHT22;156;48.738;9.228;2023-04-02T07:53:29;8.80;1.00
336;DHT22;156;48.738;9.228;2023-04-02T07:55:57;8.80;1.00
336;DHT22;156;48.738;9.228;2023-04-02T07:58:25;8.80;1.00
336;DHT22;156;48.738;9.228;2023-04-02T08:00:52;8.80;1.00
336;DHT22;156;48.738;9.228;2023-04-02T08:03:21;8.90;1.00
336;DHT22;156;48.738;9.228;2023-04-02T08:05:51;9.00;1.00
336;DHT22;156;48.738;9.228;2023-04-02T08:08:19;9.00;1.00
336;DHT22;156;48.738;9.228;2023-04-02T08:10:46;9.00;1.00
336;DHT22;156;48.738;9.228;2023-04-02T08:13:14;9.00;1.00
336;DHT22;156;48.738;9.228;2023-04-02T08:15:41;9.10;1.00
336;DHT22;156;48.738;9.228;2023-04-02T08:18:08;9.20;1.00
336;DHT22;156;48.738;9.228;2023-04-02T08:20:37;9.30;1.00
336;DHT22;156;48.738;9.228;2023-04-02T08:23:04;9.30;1.00
336;DHT22;156;48.738;9.228;2023-04-02T08:25:31;9.30;1.00
336;DHT22;156;48.738;9.228;2023-04-02T08:27:58;9.30;1.00
336;DHT22;156;48.738;9.228;2023-04-02T08:30:26;9.40;1.00
336;DHT22;156;48.738;9.228;2023-04-02T08:32:52;9.40;1.00
336;DHT22;156;48.738;9.228;2023-04-02T08:35:19;9.40;1.00
336;DHT22;156;48.738;9.228;2023-04-02T08:37:49;9.50;1.00
336;DHT22;156;48.738;9.228;2023-04-02T08:40:22;9.50;1.00
336;DHT22;156;48.738;9.228;2023-04-02T08:43:02;9.70;1.00
336;DHT22;156;48.738;9.228;2023-04-02T08:45:39;9.80;1.00
336;DHT22;156;48.738;9.228;2023-04-02T08:48:09;9.90;1.00
336;DHT22;156;48.738;9.228;2023-04-02T08:50:38;10.00;1.00
336;DHT22;156;48.738;9.228;2023-04-02T08:53:11;10.10;1.00
336;DHT22;156;48.738;9.228;2023-04-02T08:55:42;10.10;1.00
336;DHT22;156;48.738;9.228;2023-04-02T08:58:20;10.10;1.00
336;DHT22;156;48.738;9.228;2023-04-02T09:00:53;10.00;1.00
336;DHT22;156;48.738;9.228;2023-04-02T09:03:27;10.00;1.00
336;DHT22;156;48.738;9.228;2023-04-02T09:05:54;10.00;1.00
336;DHT22;156;48.738;9.228;2023-04-02T09:08:25;10.10;1.00
336;DHT22;156;48.738;9.228;2023-04-02T09:10:59;10.30;1.00
336;DHT22;156;48.738;9.228;2023-04-02T09:13:29;10.30;1.00
336;DHT22;156;48.738;9.228;2023-04-02T09:16:02;10.10;1.00
336;DHT22;156;48.738;9.228;2023-04-02T09:18:33;9.90;1.00
336;DHT22;156;48.738;9.228;2023-04-02T09:21:03;9.80;1.00
336;DHT22;156;48.738;9.228;2023-04-02T09:23:43;9.50;1.00
336;DHT22;156;48.738;9.228;2023-04-02T09:26:18;9.30;1.00
336;DHT22;156;48.738;9.228;2023-04-02T09:28:46;9.20;1.00
336;DHT22;156;48.738;9.228;2023-04-02T09:31:18;9.10;1.00
336;DHT22;156;48.738;9.228;2023-04-02T09:33:49;9.10;1.00
336;DHT22;156;48.738;9.228;2023-04-02T09:36:30;9.00;1.00
336;DHT22;156;48.738;9.228;2023-04-02T09:39:03;9.00;1.00
336;DHT22;156;48.738;9.228;2023-04-02T09:41:32;8.90;1.00
336;DHT22;156;48.738;9.228;2023-04-02T09:44:17;8.90;1.00
336;DHT22;156;48.738;9.228;2023-04-02T09:46:53;8.80;1.00
336;DHT22;156;48.738;9.228;2023-04-02T09:49:23;8.80;1.00
336;DHT22;156;48.738;9.228;2023-04-02T09:52:19;8.80;1.00
336;DHT22;156;48.738;9.228;2023-04-02T09:55:18;8.90;1.00
336;DHT22;156;48.738;9.228;2023-04-02T09:57:47;9.00;1.00
336;DHT22;156;48.738;9.228;2023-04-02T10:00:18;9.00;1.00
336;DHT22;156;48.738;9.228;2023-04-02T10:03:00;9.10;1.00
336;DHT22;156;48.738;9.228;2023-04-02T10:05:28;9.20;1.00
336;DHT22;156;48.738;9.228;2023-04-02T10:08:05;9.20;1.00
336;DHT22;156;48.738;9.228;2023-04-02T10:10:38;9.20;1.00
336;DHT22;156;48.738;9.228;2023-04-02T10:13:13;9.20;1.00
336;DHT22;156;48.738;9.228;2023-04-02T10:15:47;9.20;1.00
336;DHT22;156;48.738;9.228;2023-04-02T10:18:26;9.20;1.00
336;DHT22;156;48.738;9.228;2023-04-02T10:20:58;9.20;1.00
336;DHT22;156;48.738;9.228;2023-04-02T10:23:29;9.20;1.00
336;DHT22;156;48.738;9.228;2023-04-02T10:26:04;9.30;1.00
336;DHT22;156;48.738;9.228;2023-04-02T10:28:44;9.40;1.00
336;DHT22;156;48.738;9.228;2023-04-02T10:31:17;9.50;1.00
336;DHT22;156;48.738;9.228;2023-04-02T10:33:49;9.60;1.00
336;DHT22;156;48.738;9.228;2023-04-02T10:36:24;9.70;1.00
336;DHT22;156;48.738;9.228;2023-04-02T10:38:58;9.80;1.00
336;DHT22;156;48.738;9.228;2023-04-02T10:41:31;9.90;1.00
336;DHT22;156;48.738;9.228;2023-04-02T10:47:05;9.90;1.00
336;DHT22;156;48.738;9.228;2023-04-02T10:49:40;9.90;1.00
336;DHT22;156;48.738;9.228;2023-04-02T10:52:11;10.10;1.00
336;DHT22;156;48.738;9.228;2023-04-02T10:54:44;10.10;1.00
336;DHT22;156;48.738;9.228;2023-04-02T10:57:26;10.30;1.00
336;DHT22;156;48.738;9.228;2023-04-02T10:59:58;10.30;1.00
336;DHT22;156;48.738;9.228;2023-04-02T11:02:37;10.30;1.00
336;DHT22;156;48.738;9.228;2023-04-02T11:05:13;10.20;1.00
336;DHT22;156;48.738;9.228;2023-04-02T11:07:52;10.10;1.00
336;DHT22;156;48.738;9.228;2023-04-02T11:10:20;10.00;1.00
336;DHT22;156;48.738;9.228;2023-04-02T11:12:53;10.00;1.00
336;DHT22;156;48.738;9.228;2023-04-02T11:15:22;10.00;1.00
336;DHT22;156;48.738;9.228;2023-04-02T11:17:50;9.90;1.00
336;DHT22;156;48.738;9.228;2023-04-02T11:23:19;9.80;1.00
336;DHT22;156;48.738;9.228;2023-04-02T11:25:47;9.80;1.00
336;DHT22;156;48.738;9.228;2023-04-02T11:28:25;9.90;1.00
336;DHT22;156;48.738;9.228;2023-04-02T11:30:53;9.90;1.00
336;DHT22;156;48.738;9.228;2023-04-02T11:33:39;10.00;1.00
336;DHT22;156;48.738;9.228;2023-04-02T11:39:09;9.90;1.00
336;DHT22;156;48.738;9.228;2023-04-02T11:42:01;10.00;1.00
336;DHT22;156;48.738;9.228;2023-04-02T11:44:30;10.10;1.00
336;DHT22;156;48.738;9.228;2023-04-02T11:47:13;10.20;1.00
336;DHT22;156;48.738;9.228;2023-04-02T11:49:59;10.20;1.00
336;DHT22;156;48.738;9.228;2023-04-02T11:52:30;10.40;1.00
336;DHT22;156;48.738;9.228;2023-04-02T11:55:20;10.40;1.00
336;DHT22;156;48.738;9.228;2023-04-02T11:58:16;10.40;1.00
336;DHT22;156;48.738;9.228;2023-04-02T12:01:09;10.40;1.00
336;DHT22;156;48.738;9.228;2023-04-02T12:04:03;10.40;1.00
336;DHT22;156;48.738;9.228;2023-04-02T12:06:45;10.40;1.00
336;DHT22;156;48.738;9.228;2023-04-02T12:09:18;10.50;1.00
336;DHT22;156;48.738;9.228;2023-04-02T12:11:47;10.60;1.00
336;DHT22;156;48.738;9.228;2023-04-02T12:14:41;10.60;1.00
336;DHT22;156;48.738;9.228;2023-04-02T12:17:17;10.80;1.00
336;DHT22;156;48.738;9.228;2023-04-02T12:19:47;10.70;1.00
336;DHT22;156;48.738;9.228;2023-04-02T12:22:19;10.80;1.00
336;DHT22;156;48.738;9.228;2023-04-02T12:24:47;10.80;1.00
336;DHT22;156;48.738;9.228;2023-04-02T12:27:17;10.70;1.00
336;DHT22;156;48.738;9.228;2023-04-02T12:29:47;10.90;1.00
336;DHT22;156;48.738;9.228;2023-04-02T12:32:23;10.90;1.00
336;DHT22;156;48.738;9.228;2023-04-02T12:34:52;11.00;1.00
336;DHT22;156;48.738;9.228;2023-04-02T12:37:21;11.00;1.00
336;DHT22;156;48.738;9.228;2023-04-02T12:39:54;11.10;1.00
336;DHT22;156;48.738;9.228;2023-04-02T12:42:30;11.20;1.00
336;DHT22;156;48.738;9.228;2023-04-02T12:44:57;11.60;1.00
336;DHT22;156;48.738;9.228;2023-04-02T12:47:26;11.50;1.00
336;DHT22;156;48.738;9.228;2023-04-02T12:49:55;11.30;1.00
336;DHT22;156;48.738;9.228;2023-04-02T12:52:24;11.40;1.00
336;DHT22;156;48.738;9.228;2023-04-02T12:54:55;11.60;1.00
336;DHT22;156;48.738;9.228;2023-04-02T12:57:32;11.90;1.00
336;DHT22;156;48.738;9.228;2023-04-02T12:59:59;12.10;1.00
336;DHT22;156;48.738;9.228;2023-04-02T13:02:42;12.10;1.00
336;DHT22;156;48.738;9.228;2023-04-02T13:05:09;11.80;1.00
336;DHT22;156;48.738;9.228;2023-04-02T13:07:37;11.70;1.00
336;DHT22;156;48.738;9.228;2023-04-02T13:10:17;11.50;1.00
336;DHT22;156;48.738;9.228;2023-04-02T13:12:47;11.40;1.00
336;DHT22;156;48.738;9.228;2023-04-02T13:15:22;11.10;1.00
336;DHT22;156;48.738;9.228;2023-04-02T13:18:04;11.00;1.00
336;DHT22;156;48.738;9.228;2023-04-02T13:20:33;11.00;1.00
336;DHT22;156;48.738;9.228;2023-04-02T13:23:14;11.00;1.00
336;DHT22;156;48.738;9.228;2023-04-02T13:25:48;10.90;1.00
336;DHT22;156;48.738;9.228;2023-04-02T13:28:15;10.90;1.00
336;DHT22;156;48.738;9.228;2023-04-02T13:30:43;11.00;1.00
336;DHT22;156;48.738;9.228;2023-04-02T13:33:12;10.90;1.00
336;DHT22;156;48.738;9.228;2023-04-02T13:35:39;10.80;1.00
336;DHT22;156;48.738;9.228;2023-04-02T13:38:06;10.90;1.00
336;DHT22;156;48.738;9.228;2023-04-02T13:40:33;10.70;1.00
336;DHT22;156;48.738;9.228;2023-04-02T13:43:01;10.60;1.00
336;DHT22;156;48.738;9.228;2023-04-02T13:45:31;10.60;1.00
336;DHT22;156;48.738;9.228;2023-04-02T13:47:58;10.40;1.00
336;DHT22;156;48.738;9.228;2023-04-02T13:50:29;10.40;1.00
336;DHT22;156;48.738;9.228;2023-04-02T13:52:57;10.30;1.00
336;DHT22;156;48.738;9.228;2023-04-02T13:55:27;10.20;1.00
336;DHT22;156;48.738;9.228;2023-04-02T13:57:57;10.20;1.00
336;DHT22;156;48.738;9.228;2023-04-02T14:00:23;10.20;1.00
336;DHT22;156;48.738;9.228;2023-04-02T14:02:54;10.20;1.00
336;DHT22;156;48.738;9.228;2023-04-02T14:05:31;10.00;1.00
336;DHT22;156;48.738;9.228;2023-04-02T14:08:08;9.90;1.00
336;DHT22;156;48.738;9.228;2023-04-02T14:10:51;9.80;1.00
336;DHT22;156;48.738;9.228;2023-04-02T14:13:30;9.80;6.10
336;DHT22;156;48.738;9.228;2023-04-02T14:16:13;9.70;13.40
336;DHT22;156;48.738;9.228;2023-04-02T14:18:52;9.60;20.10
336;DHT22;156;48.738;9.228;2023-04-02T14:21:28;9.60;27.10
336;DHT22;156;48.738;9.228;2023-04-02T14:24:12;9.40;38.80
336;DHT22;156;48.738;9.228;2023-04-02T14:26:49;9.30;49.80
336;DHT22;156;48.738;9.228;2023-04-02T14:29:25;9.20;49.90
336;DHT22;156;48.738;9.228;2023-04-02T14:31:58;9.10;49.90
336;DHT22;156;48.738;9.228;2023-04-02T14:34:35;9.00;55.20
336;DHT22;156;48.738;9.228;2023-04-02T14:37:11;9.00;58.40
336;DHT22;156;48.738;9.228;2023-04-02T14:39:51;8.90;56.00
336;DHT22;156;48.738;9.228;2023-04-02T14:42:23;8.90;56.10
336;DHT22;156;48.738;9.228;2023-04-02T14:44:59;8.90;57.90
336;DHT22;156;48.738;9.228;2023-04-02T14:47:30;8.90;51.20
336;DHT22;156;48.738;9.228;2023-04-02T14:50:04;8.80;49.30
336;DHT22;156;48.738;9.228;2023-04-02T14:52:38;8.80;49.10
336;DHT22;156;48.738;9.228;2023-04-02T14:55:12;8.80;44.80
336;DHT22;156;48.738;9.228;2023-04-02T14:57:42;8.80;44.20
336;DHT22;156;48.738;9.228;2023-04-02T15:00:25;8.70;48.60
336;DHT22;156;48.738;9.228;2023-04-02T15:02:56;8.80;54.00
336;DHT22;156;48.738;9.228;2023-04-02T15:05:31;8.80;51.90
336;DHT22;156;48.738;9.228;2023-04-02T15:08:04;8.80;54.30
336;DHT22;156;48.738;9.228;2023-04-02T15:10:34;8.80;53.20
336;DHT22;156;48.738;9.228;2023-04-02T15:13:05;8.80;51.40
336;DHT22;156;48.738;9.228;2023-04-02T15:15:39;8.80;54.50
336;DHT22;156;48.738;9.228;2023-04-02T15:18:10;8.70;57.50
336;DHT22;156;48.738;9.228;2023-04-02T15:20:42;8.70;67.30
336;DHT22;156;48.738;9.228;2023-04-02T15:23:18;8.70;72.30
336;DHT22;156;48.738;9.228;2023-04-02T15:25:56;8.60;77.60
336;DHT22;156;48.738;9.228;2023-04-02T15:28:28;8.50;83.60
336;DHT22;156;48.738;9.228;2023-04-02T15:30:59;8.40;88.00
336;DHT22;156;48.738;9.228;2023-04-02T15:33:37;8.40;91.90
336;DHT22;156;48.738;9.228;2023-04-02T15:36:30;8.30;95.40
336;DHT22;156;48.738;9.228;2023-04-02T15:39:06;8.20;99.50
336;DHT22;156;48.738;9.228;2023-04-02T15:41:40;8.20;99.40
336;DHT22;156;48.738;9.228;2023-04-02T15:44:11;8.10;95.40
336;DHT22;156;48.738;9.228;2023-04-02T15:46:47;8.10;86.10
336;DHT22;156;48.738;9.228;2023-04-02T15:49:39;8.10;77.40
336;DHT22;156;48.738;9.228;2023-04-02T15:52:10;8.00;70.80
336;DHT22;156;48.738;9.228;2023-04-02T15:54:55;8.00;76.50
336;DHT22;156;48.738;9.228;2023-04-02T15:57:41;8.00;73.10
336;DHT22;156;48.738;9.228;2023-04-02T16:00:19;8.00;78.90
336;DHT22;156;48.738;9.228;2023-04-02T16:03:15;7.90;83.00
336;DHT22;156;48.738;9.228;2023-04-02T16:05:54;7.80;90.10
336;DHT22;156;48.738;9.228;2023-04-02T16:08:39;7.70;93.70
336;DHT22;156;48.738;9.228;2023-04-02T16:11:14;7.70;95.50
336;DHT22;156;48.738;9.228;2023-04-02T16:13:41;7.60;95.50
336;DHT22;156;48.738;9.228;2023-04-02T16:16:11;7.60;96.40
336;DHT22;156;48.738;9.228;2023-04-02T16:18:46;7.40;91.10
336;DHT22;156;48.738;9.228;2023-04-02T16:21:19;7.40;94.70
336;DHT22;156;48.738;9.228;2023-04-02T16:23:47;7.30;90.70
336;DHT22;156;48.738;9.228;2023-04-02T16:29:25;7.30;90.00
336;DHT22;156;48.738;9.228;2023-04-02T16:31:57;7.30;84.40
336;DHT22;156;48.738;9.228;2023-04-02T16:34:35;7.20;81.50
336;DHT22;156;48.738;9.228;2023-04-02T16:37:11;7.20;77.00
336;DHT22;156;48.738;9.228;2023-04-02T16:39:44;7.30;77.50
336;DHT22;156;48.738;9.228;2023-04-02T16:42:24;7.30;73.30
336;DHT22;156;48.738;9.228;2023-04-02T16:45:05;7.30;70.70
336;DHT22;156;48.738;9.228;2023-04-02T16:47:49;7.30;66.50
336;DHT22;156;48.738;9.228;2023-04-02T16:50:29;7.20;62.60
336;DHT22;156;48.738;9.228;2023-04-02T16:53:06;7.30;67.50
336;DHT22;156;48.738;9.228;2023-04-02T16:55:48;7.30;62.80
336;DHT22;156;48.738;9.228;2023-04-02T16:58:28;7.30;48.90
336;DHT22;156;48.738;9.228;2023-04-02T17:01:01;7.30;45.30
336;DHT22;156;48.738;9.228;2023-04-02T17:03:45;7.20;38.50
336;DHT22;156;48.738;9.228;2023-04-02T17:06:19;7.20;30.90
336;DHT22;156;48.738;9.228;2023-04-02T17:08:57;7.20;25.10
336;DHT22;156;48.738;9.228;2023-04-02T17:11:32;7.10;24.80
336;DHT22;156;48.738;9.228;2023-04-02T17:14:04;7.10;25.60
336;DHT22;156;48.738;9.228;2023-04-02T17:16:38;7.00;21.00
336;DHT22;156;48.738;9.228;2023-04-02T17:19:09;6.90;24.30
336;DHT22;156;48.738;9.228;2023-04-02T17:21:36;6.90;28.50
336;DHT22;156;48.738;9.228;2023-04-02T17:24:14;6.80;28.40
336;DHT22;156;48.738;9.228;2023-04-02T17:26:44;6.80;29.80
336;DHT22;156;48.738;9.228;2023-04-02T17:29:18;6.90;28.90
336;DHT22;156;48.738;9.228;2023-04-02T17:31:47;6.80;28.30
336;DHT22;156;48.738;9.228;2023-04-02T17:34:17;6.80;29.70
336;DHT22;156;48.738;9.228;2023-04-02T17:36:54;6.90;28.50
336;DHT22;156;48.738;9.228;2023-04-02T17:39:27;6.80;27.40
336;DHT22;156;48.738;9.228;2023-04-02T17:42:09;6.80;26.70
336;DHT22;156;48.738;9.228;2023-04-02T17:44:50;6.70;24.00
336;DHT22;156;48.738;9.228;2023-04-02T17:47:19;6.70;25.00
336;DHT22;156;48.738;9.228;2023-04-02T17:50:23;6.70;28.00